Time;durP1;ratioP1;P1;durP2;ratioP2;P2;SDS_P1;SDS_P2;PMS_P1;PMS_P2;Temp;Humidity;BMP_temperature;BMP_pressure;BME280_temperature;BME280_humidity;BME280_pressure;Samples;Min_cycle;Max_cycle;Signal;HPM_P1;HPM_P2
2022/04/12 00:01:13;;;;;;;10.52;5.35;;;;;;;2.46;75.69;100879.97;5568405;32;34882;-65
2022/04/12 00:04:16;;;;;;;9.70;5.43;;;;;;;2.63;74.61;100884.87;5568351;32;34148;-65
2022/04/12 00:07:18;;;;;;;10.23;5.45;;;;;;;2.61;75.14;100888.56;5554497;32;33704;-65
2022/04/12 00:10:21;;;;;;;9.60;5.45;;;;;;;2.54;75.10;100877.66;5568350;32;35450;-65
2022/04/12 00:13:24;;;;;;;7.97;5.12;;;;;;;2.49;75.49;100884.16;5568187;32;34860;-65
2022/04/12 00:16:27;;;;;;;10.60;5.78;;;;;;;2.36;75.63;100878.91;5568557;32;34251;-64
2022/04/12 00:19:29;;;;;;;10.70;5.45;;;;;;;2.29;76.69;100892.50;5541351;32;33217;-65
2022/04/12 00:22:32;;;;;;;11.82;5.82;;;;;;;2.26;77.15;100882.25;5568547;32;34581;-64
2022/04/12 00:25:35;;;;;;;9.00;5.30;;;;;;;2.26;77.55;100877.84;5554413;32;32856;-64
2022/04/12 00:28:38;;;;;;;8.45;5.43;;;;;;;2.22;78.25;100875.53;5567969;32;34255;-64
2022/04/12 00:31:41;;;;;;;12.23;5.90;;;;;;;2.25;78.99;100870.94;5554098;32;33491;-65
2022/04/12 00:34:44;;;;;;;9.70;5.75;;;;;;;2.27;80.48;100870.84;5567911;32;34229;-65
2022/04/12 00:37:47;;;;;;;10.57;5.75;;;;;;;2.26;80.06;100864.75;5570432;32;34228;-65
2022/04/12 00:40:50;;;;;;;12.20;5.93;;;;;;;2.29;79.98;100859.31;5570883;32;34258;-65
2022/04/12 00:43:53;;;;;;;11.27;6.15;;;;;;;2.37;79.96;100867.47;5570814;32;34535;-65
2022/04/12 00:46:56;;;;;;;11.15;6.40;;;;;;;2.77;77.98;100860.34;5570698;32;34500;-64
2022/04/12 00:49:58;;;;;;;10.27;5.97;;;;;;;3.04;76.58;100860.22;5570748;32;34325;-64
2022/04/12 00:53:01;;;;;;;12.25;5.80;;;;;;;3.08;75.78;100866.94;5570709;32;34566;-64
2022/04/12 00:56:04;;;;;;;10.40;5.50;;;;;;;2.79;77.40;100861.09;5570673;32;34155;-64
2022/04/12 00:59:08;;;;;;;11.88;5.55;;;;;;;2.68;77.53;100862.78;5556551;32;32636;-64
2022/04/12 01:02:10;;;;;;;10.20;5.78;;;;;;;2.62;77.25;100866.66;5570708;32;34223;-65
2022/04/12 01:05:13;;;;;;;8.93;5.20;;;;;;;2.63;77.52;100871.78;5544044;32;33157;-65
2022/04/12 01:08:17;;;;;;;11.02;5.55;;;;;;;2.69;77.39;100869.69;5556848;32;32684;-65
2022/04/12 01:11:20;;;;;;;9.25;5.53;;;;;;;2.67;77.55;100861.94;5556822;32;32625;-65
2022/04/12 01:14:24;;;;;;;10.38;5.68;;;;;;;2.60;77.83;100864.16;5556786;32;32803;-65
2022/04/12 01:17:27;;;;;;;9.07;5.87;;;;;;;2.65;78.06;100863.84;5556503;32;34201;-65
2022/04/12 01:20:30;;;;;;;9.98;5.62;;;;;;;2.62;78.20;100859.63;5556716;32;34337;-64
2022/04/12 01:23:52;;;;;;;12.80;5.95;;;;;;;2.62;78.97;100864.88;5556857;32;32680;-64
2022/04/12 01:26:55;;;;;;;9.77;5.60;;;;;;;2.64;79.00;100859.53;5570373;32;34891;-64
2022/04/12 01:29:58;;;;;;;9.05;5.80;;;;;;;2.75;78.94;100853.56;5556138;32;34805;-65
2022/04/12 01:33:00;;;;;;;10.60;6.22;;;;;;;2.86;79.93;100853.63;5556609;32;32666;-65
2022/04/12 01:36:03;;;;;;;12.95;6.10;;;;;;;2.74;80.37;100851.88;5556536;32;32809;-64
2022/04/12 01:39:06;;;;;;;13.07;5.72;;;;;;;2.69;81.97;100853.97;5570092;32;34212;-64
2022/04/12 01:42:09;;;;;;;11.20;5.97;;;;;;;2.68;83.17;100850.50;5570506;32;34190;-64
2022/04/12 01:45:11;;;;;;;11.02;5.47;;;;;;;2.65;82.86;100849.91;5570065;32;34926;-64
2022/04/12 01:48:14;;;;;;;8.20;5.45;;;;;;;2.62;82.52;100851.78;5568730;32;34902;-64
2022/04/12 01:51:17;;;;;;;8.65;5.62;;;;;;;2.52;82.62;100849.88;5569937;32;34205;-64
2022/04/12 01:54:20;;;;;;;9.45;5.78;;;;;;;2.43;83.66;100855.75;5569984;32;34164;-64
2022/04/12 01:57:22;;;;;;;8.88;5.03;;;;;;;2.31;84.78;100853.97;5556255;32;34493;-64
2022/04/12 02:00:25;;;;;;;11.95;5.78;;;;;;;2.16;87.87;100854.06;5569911;32;34521;-64
2022/04/12 02:03:29;;;;;;;13.05;5.65;;;;;;;2.05;88.76;100861.78;5569780;32;34553;-65
2022/04/12 02:06:31;;;;;;;11.45;5.35;;;;;;;1.99;89.86;100856.97;5569704;32;34887;-65
2022/04/12 02:09:34;;;;;;;9.05;5.40;;;;;;;1.88;91.45;100848.16;5569918;32;34386;-65
2022/04/12 02:12:36;;;;;;;9.85;5.55;;;;;;;1.83;92.83;100858.09;5570033;32;34282;-65
2022/04/12 02:15:40;;;;;;;7.80;5.37;;;;;;;1.77;93.63;100853.25;5570301;32;34285;-64
2022/04/12 02:18:42;;;;;;;10.68;5.57;;;;;;;1.79;94.43;100861.84;5556725;32;34225;-64
2022/04/12 02:21:45;;;;;;;12.63;5.90;;;;;;;1.70;95.40;100858.03;5570045;32;34223;-64
2022/04/12 02:24:48;;;;;;;10.10;6.00;;;;;;;1.63;96.14;100857.59;5569758;32;34920;-64
2022/04/12 02:27:50;;;;;;;10.82;6.30;;;;;;;1.58;97.52;100856.22;5569690;32;34281;-64
2022/04/12 02:30:53;;;;;;;10.63;6.12;;;;;;;1.57;97.52;100849.31;5555944;32;32701;-65
2022/04/12 02:33:56;;;;;;;13.88;7.05;;;;;;;1.49;97.94;100854.19;5556165;32;34871;-64
2022/04/12 02:36:59;;;;;;;11.75;6.43;;;;;;;1.50;97.98;100859.31;5569781;32;34395;-65
2022/04/12 02:40:03;;;;;;;10.50;6.30;;;;;;;1.45;98.20;100857.94;5569752;32;34920;-65
2022/04/12 02:43:05;;;;;;;10.88;6.30;;;;;;;1.44;98.14;100862.34;5569584;32;34362;-65
2022/04/12 02:46:09;;;;;;;11.75;6.25;;;;;;;1.44;98.58;100864.09;5569432;32;34821;-65
2022/04/12 02:49:12;;;;;;;11.02;6.47;;;;;;;1.45;99.03;100874.47;5569637;32;34582;-65
2022/04/12 02:52:15;;;;;;;13.65;6.18;;;;;;;1.37;99.65;100868.88;5569672;32;34865;-65
2022/04/12 02:55:17;;;;;;;11.75;6.60;;;;;;;1.34;99.51;100873.47;5569267;32;34624;-65
2022/04/12 02:58:20;;;;;;;10.18;5.50;;;;;;;1.58;96.81;100874.53;5568907;32;34320;-64
2022/04/12 03:01:23;;;;;;;8.02;5.82;;;;;;;1.64;92.20;100879.38;5555796;32;34805;-65
2022/04/12 03:04:26;;;;;;;10.85;6.43;;;;;;;1.51;91.85;100871.44;5569553;32;34345;-65
2022/04/12 03:07:28;;;;;;;10.20;6.12;;;;;;;1.45;92.32;100868.41;5569308;32;34917;-65
2022/04/12 03:10:31;;;;;;;9.93;5.80;;;;;;;1.40;92.19;100884.37;5569440;32;34925;-65
2022/04/12 03:13:34;;;;;;;10.93;6.28;;;;;;;1.33;92.18;100882.25;5555421;32;34320;-65
2022/04/12 03:16:37;;;;;;;10.38;6.10;;;;;;;1.31;92.05;100879.72;5555519;32;35485;-64
2022/04/12 03:19:39;;;;;;;9.48;5.90;;;;;;;1.26;92.23;100879.16;5569139;32;34973;-64
2022/04/12 03:22:42;;;;;;;10.40;5.57;;;;;;;1.26;92.03;100881.78;5569187;32;34189;-65
2022/04/12 03:25:45;;;;;;;9.30;5.95;;;;;;;1.26;92.09;100880.00;5568930;32;34314;-65
2022/04/12 03:28:48;;;;;;;11.75;5.87;;;;;;;1.21;92.69;100881.25;5568809;32;34257;-64
2022/04/12 03:31:50;;;;;;;10.38;5.72;;;;;;;1.18;92.98;100873.59;5554968;32;33012;-64
2022/04/12 03:34:53;;;;;;;8.75;5.80;;;;;;;1.17;93.43;100877.13;5568705;32;34522;-65
2022/04/12 03:38:01;;;;;;;12.45;6.60;;;;;;;1.16;94.50;100886.75;5554953;32;34013;-65
2022/04/12 03:41:04;;;;;;;9.73;6.18;;;;;;;1.15;95.44;100879.84;5568779;32;34947;-64
2022/04/12 03:44:07;;;;;;;13.40;6.68;;;;;;;1.27;97.07;100886.91;5554659;32;33513;-66
2022/04/12 03:47:10;;;;;;;9.85;6.22;;;;;;;1.26;98.15;100887.00;5555000;32;33423;-65
2022/04/12 03:50:13;;;;;;;11.05;6.40;;;;;;;1.10;98.78;100883.69;5568401;32;34225;-66
2022/04/12 03:53:16;;;;;;;10.50;6.20;;;;;;;1.37;98.87;100895.00;5568573;32;34639;-66
2022/04/12 03:56:19;;;;;;;13.98;7.00;;;;;;;1.35;98.49;100891.69;5554596;32;33570;-65
2022/04/12 03:59:21;;;;;;;10.27;6.45;;;;;;;1.17;99.89;100895.41;5554472;32;33276;-65
2022/04/12 04:02:24;;;;;;;10.55;6.55;;;;;;;1.18;100.00;100902.34;5568711;32;34244;-65
2022/04/12 04:05:27;;;;;;;9.40;6.07;;;;;;;1.11;100.00;100898.44;5568407;32;34896;-66
2022/04/12 04:08:30;;;;;;;11.15;6.80;;;;;;;1.10;100.00;100901.97;5568432;32;34426;-65
2022/04/12 04:11:34;;;;;;;10.32;6.07;;;;;;;1.03;100.00;100903.28;5569466;32;35524;-66
2022/04/12 04:14:39;;;;;;;11.25;6.07;;;;;;;1.04;100.00;100907.56;5557328;32;32874;-65
2022/04/12 04:17:43;;;;;;;12.52;6.20;;;;;;;0.99;100.00;100904.41;5557388;32;34259;-66
2022/04/12 04:20:45;;;;;;;13.13;6.75;;;;;;;1.00;100.00;100911.31;5571189;32;34240;-66
2022/04/12 04:23:48;;;;;;;9.57;6.22;;;;;;;0.99;100.00;100910.47;5570758;32;34167;-66
2022/04/12 04:26:55;;;;;;;9.93;5.65;;;;;;;1.02;100.00;100915.50;5557228;32;34216;-66
2022/04/12 04:29:58;;;;;;;9.98;5.78;;;;;;;1.16;100.00;100910.25;5570845;32;34814;-66
2022/04/12 04:33:00;;;;;;;11.10;6.10;;;;;;;1.52;100.00;100909.75;5571149;32;34900;-66
2022/04/12 04:36:03;;;;;;;9.48;5.25;;;;;;;1.54;100.00;100918.34;5557203;32;32608;-65
2022/04/12 04:39:06;;;;;;;9.85;5.87;;;;;;;1.36;100.00;100916.84;5570740;32;34180;-66
2022/04/12 04:42:08;;;;;;;8.98;5.55;;;;;;;1.27;100.00;100917.44;5571115;32;34264;-66
2022/04/12 04:45:15;;;;;;;10.60;5.47;;;;;;;1.28;100.00;100919.13;5570666;32;34894;-66
2022/04/12 04:48:18;;;;;;;9.23;5.62;;;;;;;1.44;100.00;100927.69;5570555;31;34446;-66
2022/04/12 04:51:21;;;;;;;11.57;5.50;;;;;;;1.43;100.00;100926.00;5543945;32;33562;-66
2022/04/12 04:54:23;;;;;;;12.35;5.43;;;;;;;1.52;100.00;100925.44;5570999;32;34337;-65
2022/04/12 04:57:26;;;;;;;8.98;5.20;;;;;;;1.68;100.00;100933.16;5570549;32;34258;-65
2022/04/12 05:00:31;;;;;;;10.02;5.47;;;;;;;2.09;100.00;100940.94;5570798;32;34217;-65
2022/04/12 05:03:34;;;;;;;10.77;5.80;;;;;;;2.23;98.42;100943.47;5543935;32;33749;-67
2022/04/12 05:06:36;;;;;;;7.53;4.85;;;;;;;2.36;96.80;100943.53;5570373;32;34249;-66
2022/04/12 05:09:39;;;;;;;7.93;5.00;;;;;;;2.49;95.53;100947.84;5556013;32;33364;-66
2022/04/12 05:12:42;;;;;;;9.43;4.93;;;;;;;2.49;94.43;100949.63;5570566;32;34928;-65
2022/04/12 05:15:44;;;;;;;10.93;5.43;;;;;;;2.68;93.51;100960.53;5557049;32;34818;-66
2022/04/12 05:18:47;;;;;;;8.88;5.07;;;;;;;2.69;93.26;100954.38;5556314;32;32800;-66
2022/04/12 05:21:50;;;;;;;9.13;5.50;;;;;;;2.64;94.51;100953.84;5570100;32;34322;-66
2022/04/12 05:24:54;;;;;;;13.77;6.18;;;;;;;2.79;93.12;100963.28;5556751;32;34824;-66
2022/04/12 05:27:56;;;;;;;11.82;5.30;;;;;;;3.01;91.76;100960.84;5570295;32;34157;-65
2022/04/12 05:30:59;;;;;;;10.38;5.55;;;;;;;3.09;90.42;100960.34;5556230;32;33556;-66
2022/04/12 05:34:02;;;;;;;12.35;5.10;;;;;;;3.29;90.55;100959.78;5556268;32;33769;-66
2022/04/12 05:37:05;;;;;;;10.38;5.47;;;;;;;3.15;89.47;100961.72;5555597;32;32977;-65
2022/04/12 05:40:10;;;;;;;10.90;5.40;;;;;;;3.37;88.78;100967.12;5556222;32;32565;-66
2022/04/12 05:43:13;;;;;;;11.80;5.50;;;;;;;3.55;86.40;100964.97;5555294;32;32942;-66
2022/04/12 05:46:15;;;;;;;9.30;5.22;;;;;;;3.62;86.37;100959.22;5569363;32;34834;-67
2022/04/12 05:49:18;;;;;;;8.52;5.05;;;;;;;3.72;84.21;100965.47;5555635;32;32877;-65
2022/04/12 05:52:21;;;;;;;7.50;4.40;;;;;;;3.82;81.71;100969.13;5555743;32;32765;-66
2022/04/12 05:55:26;;;;;;;11.40;4.68;;;;;;;4.05;78.14;100969.25;5569741;32;34652;-65
2022/04/12 05:58:30;;;;;;;7.43;3.90;;;;;;;4.17;77.89;100968.31;5569536;32;34665;-65
2022/04/12 06:01:33;;;;;;;5.82;3.92;;;;;;;4.21;78.24;100967.19;5569507;32;34202;-65
2022/04/12 06:04:36;;;;;;;6.00;3.70;;;;;;;4.40;76.84;100979.78;5555997;32;33093;-66
2022/04/12 06:07:39;;;;;;;7.22;4.50;;;;;;;4.44;75.98;100986.47;5555991;32;33482;-66
2022/04/12 06:10:41;;;;;;;6.60;4.15;;;;;;;4.57;74.27;100987.25;5555097;32;33621;-67
2022/04/12 06:13:44;;;;;;;9.02;4.53;;;;;;;4.66;74.35;100987.38;5555485;32;32803;-66
2022/04/12 06:16:47;;;;;;;8.70;4.82;;;;;;;4.70;73.71;100980.94;5555657;32;34206;-65
2022/04/12 06:19:50;;;;;;;9.90;4.97;;;;;;;4.88;74.44;100985.78;5569462;32;34278;-66
2022/04/12 06:22:53;;;;;;;9.40;4.20;;;;;;;5.08;73.48;100988.53;5569586;32;34344;-66
2022/04/12 06:25:56;;;;;;;10.95;4.78;;;;;;;5.17;73.27;100995.75;5555265;32;34341;-67
2022/04/12 06:28:59;;;;;;;7.75;4.65;;;;;;;5.37;71.89;100988.09;5555540;32;34216;-66
2022/04/12 06:32:01;;;;;;;14.43;4.35;;;;;;;5.59;71.53;100988.09;5555433;32;34413;-67
2022/04/12 06:35:06;;;;;;;8.13;4.50;;;;;;;5.95;70.68;100992.25;5554922;32;32602;-66
2022/04/12 06:38:10;;;;;;;11.70;4.43;;;;;;;6.15;68.38;100993.28;5569591;32;34281;-66
2022/04/12 06:41:12;;;;;;;7.30;3.95;;;;;;;6.19;65.61;100994.72;5569512;32;34636;-66
2022/04/12 06:44:15;;;;;;;8.63;5.00;;;;;;;6.63;65.74;101004.25;5556012;32;34330;-67
2022/04/12 06:47:18;;;;;;;6.53;4.00;;;;;;;6.90;63.74;101001.94;5569554;32;34188;-67
2022/04/12 06:50:22;;;;;;;9.48;4.72;;;;;;;7.59;61.77;101004.78;5555509;32;33541;-68
2022/04/12 06:53:25;;;;;;;9.07;4.30;;;;;;;8.15;59.88;101005.06;5555117;32;34414;-66
2022/04/12 06:56:28;;;;;;;9.48;4.82;;;;;;;9.28;56.99;101006.13;5555411;32;34499;-66
2022/04/12 06:59:32;;;;;;;7.03;4.53;;;;;;;9.98;52.58;100997.56;5569230;32;34341;-67
2022/04/12 07:02:35;;;;;;;9.25;5.10;;;;;;;9.35;53.36;100999.25;5569264;32;34201;-67
2022/04/12 07:05:38;;;;;;;9.98;5.60;;;;;;;9.91;53.42;101000.00;5542420;32;33658;-67
2022/04/12 07:08:40;;;;;;;8.10;5.22;;;;;;;10.30;50.99;100994.47;5555383;32;33703;-66
2022/04/12 07:11:44;;;;;;;7.03;4.55;;;;;;;9.96;52.02;101003.03;5555246;32;34113;-67
2022/04/12 07:14:46;;;;;;;10.13;4.95;;;;;;;10.83;50.55;101002.41;5569268;32;34112;-68
2022/04/12 07:17:55;;;;;;;10.77;5.20;;;;;;;10.75;49.27;101003.16;5543242;32;32832;-67
2022/04/12 07:20:58;;;;;;;9.13;4.68;;;;;;;10.39;50.76;101014.78;5569011;32;34781;-67
2022/04/12 07:24:03;;;;;;;9.25;4.28;;;;;;;11.06;49.36;101002.72;5568954;32;34378;-67
2022/04/12 07:27:06;;;;;;;7.62;4.00;;;;;;;11.39;48.01;100995.78;5568932;32;34290;-67
2022/04/12 07:30:09;;;;;;;7.22;4.22;;;;;;;11.48;47.67;101008.94;5554766;32;33016;-67
2022/04/12 07:33:11;;;;;;;8.95;4.60;;;;;;;13.01;42.70;101005.00;5555066;32;33130;-67
2022/04/12 07:36:17;;;;;;;6.87;4.15;;;;;;;13.86;41.33;101006.09;5568899;32;34237;-67
2022/04/12 07:39:20;;;;;;;6.93;3.92;;;;;;;13.10;43.29;101005.81;5568710;32;34831;-67
2022/04/12 07:42:24;;;;;;;6.50;3.67;;;;;;;14.65;40.35;101003.16;5554883;32;33370;-67
2022/04/12 07:45:27;;;;;;;7.45;4.18;;;;;;;13.78;39.92;101001.66;5556441;32;34175;-68
2022/04/12 07:48:31;;;;;;;8.10;4.10;;;;;;;15.17;37.15;100999.66;5571039;32;34891;-69
2022/04/12 07:51:34;;;;;;;9.38;3.62;;;;;;;16.36;36.89;100997.50;5544075;32;32804;-68
2022/04/12 07:54:37;;;;;;;6.47;3.55;;;;;;;17.13;32.83;101003.00;5557420;32;34157;-68
2022/04/12 07:57:40;;;;;;;6.15;3.42;;;;;;;16.04;35.38;100995.31;5557435;32;33675;-68
2022/04/12 08:00:43;;;;;;;6.25;3.72;;;;;;;14.31;38.62;101003.53;5571007;32;35593;-68
2022/04/12 08:03:47;;;;;;;7.05;3.50;;;;;;;15.75;36.83;101011.41;5543885;32;32832;-68
2022/04/12 08:06:49;;;;;;;4.80;2.97;;;;;;;16.48;33.88;101009.41;5557095;32;32741;-68
2022/04/12 08:09:52;;;;;;;7.90;3.47;;;;;;;17.65;32.09;101007.06;5557013;32;33716;-68
2022/04/12 08:12:56;;;;;;;5.53;3.45;;;;;;;17.77;31.93;101006.28;5570843;32;34309;-68
2022/04/12 08:15:59;;;;;;;5.97;3.35;;;;;;;16.51;32.75;101011.69;5557317;32;34802;-69
2022/04/12 08:19:02;;;;;;;5.70;3.22;;;;;;;17.29;33.24;101007.22;5556688;32;33375;-68
2022/04/12 08:22:05;;;;;;;5.57;3.08;;;;;;;17.80;32.34;101019.31;5557315;32;34214;-68
2022/04/12 08:25:13;;;;;;;5.15;3.33;;;;;;;19.43;30.13;101014.41;5557905;32;34160;-69
2022/04/12 08:28:16;;;;;;;4.65;3.08;;;;;;;21.09;25.78;101010.66;5556281;32;35492;-68
2022/04/12 08:31:24;;;;;;;5.43;3.08;;;;;;;20.80;27.16;101009.44;5570688;31;34353;-69
2022/04/12 08:34:27;;;;;;;4.35;2.78;;;;;;;19.28;27.91;101011.09;5556601;32;33753;-69
2022/04/12 08:37:30;;;;;;;5.10;3.30;;;;;;;21.22;25.50;101015.94;5543409;32;33029;-69
2022/04/12 08:40:33;;;;;;;4.07;2.85;;;;;;;20.03;26.06;101017.75;5556795;32;34223;-69
2022/04/12 08:43:39;;;;;;;4.80;3.45;;;;;;;21.62;24.48;101015.56;5570468;32;34579;-68
2022/04/12 08:46:46;;;;;;;4.50;2.85;;;;;;;21.07;24.21;101010.03;5556308;32;34862;-69
2022/04/12 08:49:49;;;;;;;6.50;3.17;;;;;;;18.69;28.62;101013.00;5543296;32;33289;-68
2022/04/12 08:52:53;;;;;;;6.00;3.12;;;;;;;18.02;30.35;101016.50;5543794;32;33092;-70
2022/04/12 08:55:55;;;;;;;5.55;3.15;;;;;;;19.00;27.88;101008.66;5555953;32;34931;-68
2022/04/12 08:59:03;;;;;;;6.45;3.53;;;;;;;20.58;26.13;101007.31;5569815;32;34194;-68
2022/04/12 09:02:12;;;;;;;6.93;3.47;;;;;;;17.50;27.73;101004.47;5556589;32;32818;-67
2022/04/12 09:05:16;;;;;;;5.05;3.47;;;;;;;17.09;30.02;101011.62;5556011;32;33315;-69
2022/04/12 09:08:30;;;;;;;10.68;3.65;;;;;;;17.04;27.88;101006.00;5544143;32;32914;-67
2022/04/12 09:11:35;;;;;;;5.68;3.40;;;;;;;17.45;29.23;100996.19;5556438;32;34175;-68
2022/04/12 09:14:57;;;;;;;6.60;3.37;;;;;;;18.47;26.05;100996.19;5570498;32;34338;-67
2022/04/12 09:18:00;;;;;;;5.05;2.83;;;;;;;18.54;25.85;101005.12;5556374;32;32725;-68
2022/04/12 09:21:21;;;;;;;4.62;3.00;;;;;;;17.57;28.92;101001.81;5556023;32;32906;-68
2022/04/12 09:24:23;;;;;;;6.50;3.20;;;;;;;17.21;28.04;100993.97;5570108;32;33554;-67
2022/04/12 09:27:28;;;;;;;5.97;3.45;;;;;;;17.24;27.59;100999.75;5569926;32;34532;-67
2022/04/12 09:30:31;;;;;;;4.82;3.40;;;;;;;16.45;29.74;100988.38;5569758;32;34213;-66
2022/04/12 09:33:36;;;;;;;6.40;3.40;;;;;;;15.88;30.48;100974.94;5570377;32;34878;-69
2022/04/12 09:36:39;;;;;;;4.97;3.08;;;;;;;14.75;32.25;100977.03;5556467;32;34793;-67
2022/04/12 09:39:41;;;;;;;5.75;2.85;;;;;;;14.94;32.00;100973.00;5570090;32;34730;-67
2022/04/12 09:42:51;;;;;;;4.75;2.80;;;;;;;15.19;31.68;100968.25;5556149;32;34451;-66
2022/04/12 09:45:54;;;;;;;8.52;2.80;;;;;;;15.20;32.78;100962.69;5556049;32;33469;-66
2022/04/12 09:48:57;;;;;;;6.07;2.80;;;;;;;15.03;31.57;100963.06;5555976;31;33294;-66
2022/04/12 09:52:09;;;;;;;6.43;2.80;;;;;;;14.41;32.34;100963.28;5556570;32;33073;-66
2022/04/12 09:55:12;;;;;;;5.93;3.10;;;;;;;14.51;32.64;100960.38;5543331;32;34587;-64
2022/04/12 09:58:35;;;;;;;4.50;2.80;;;;;;;13.91;33.83;100966.41;5556445;32;32836;-66
2022/04/12 10:01:41;;;;;;;6.72;2.90;;;;;;;13.80;32.22;100961.44;5569671;32;34410;-65
2022/04/12 10:04:46;;;;;;;5.93;3.12;;;;;;;13.64;32.53;100948.22;5569761;32;34137;-65
2022/04/12 10:07:49;;;;;;;4.10;2.80;;;;;;;13.37;33.07;100955.63;5555489;32;34238;-66
2022/04/12 10:10:53;;;;;;;4.78;2.80;;;;;;;13.20;34.38;100951.38;5555868;32;34510;-66
2022/04/12 10:13:56;;;;;;;5.62;2.50;;;;;;;13.44;35.06;100943.28;5569313;32;35549;-66
2022/04/12 10:17:00;;;;;;;6.22;2.78;;;;;;;13.51;34.06;100940.75;5569364;32;34257;-66
2022/04/12 10:20:05;;;;;;;5.25;2.90;;;;;;;13.70;34.78;100936.84;5569977;32;34995;-66
2022/04/12 10:23:09;;;;;;;6.85;2.80;;;;;;;13.15;35.51;100931.56;5555596;32;32962;-66
2022/04/12 10:26:13;;;;;;;5.97;2.83;;;;;;;13.58;34.91;100932.91;5570467;32;35513;-66
2022/04/12 10:29:21;;;;;;;6.10;3.35;;;;;;;13.31;35.84;100932.31;5614919;31;292655;-66
2022/04/12 10:32:25;;;;;;;5.47;3.05;;;;;;;13.00;34.77;100932.25;5603249;31;33402;-66
2022/04/12 10:35:42;;;;;;;6.15;2.92;;;;;;;12.82;34.67;100922.78;5590747;31;32220;-66
2022/04/12 10:38:45;;;;;;;6.47;3.15;;;;;;;13.06;35.59;100912.91;5602758;31;33349;-67
2022/04/12 10:41:51;;;;;;;6.60;2.90;;;;;;;13.02;35.04;100913.44;5603334;31;33236;-65
2022/04/12 10:44:58;;;;;;;4.95;2.92;;;;;;;14.75;32.22;100906.75;5576777;31;34332;-66
2022/04/12 10:48:02;;;;;;;6.80;3.05;;;;;;;17.98;28.51;100914.06;5603061;31;33293;-65
2022/04/12 10:51:06;;;;;;;4.62;2.78;;;;;;;17.55;27.19;100910.81;5590130;31;32445;-66
2022/04/12 10:54:29;;;;;;;5.45;3.15;;;;;;;19.33;25.80;100906.38;5604037;31;34732;-66
2022/04/12 10:57:32;;;;;;;5.37;3.03;;;;;;;18.89;25.85;100903.59;5603567;31;33793;-66
2022/04/12 11:00:36;;;;;;;5.28;2.60;;;;;;;23.27;20.38;100906.56;5603755;31;35002;-65
2022/04/12 11:03:41;;;;;;;4.47;2.97;;;;;;;24.05;19.78;100906.00;5603121;31;32905;-66
2022/04/12 11:06:46;;;;;;;8.75;3.37;;;;;;;25.77;18.05;100910.47;5603243;31;32212;-66
2022/04/12 11:10:19;;;;;;;4.25;3.10;;;;;;;26.29;17.55;100903.41;5589759;31;32259;-67
2022/04/12 11:13:27;;;;;;;5.55;2.53;;;;;;;25.76;17.98;100895.22;5601331;31;32158;-68
2022/04/12 11:16:48;;;;;;;3.28;2.30;;;;;;;26.49;17.50;100885.63;5589904;31;32991;-68
2022/04/12 11:19:54;;;;;;;3.70;2.75;;;;;;;26.66;16.79;100880.84;5602779;31;32875;-68
2022/04/12 11:22:59;;;;;;;5.22;2.87;;;;;;;24.70;18.79;100870.19;5590162;31;33819;-67
2022/04/12 11:26:34;;;;;;;5.53;2.80;;;;;;;26.13;17.27;100870.87;5602921;31;32290;-68
2022/04/12 11:29:40;;;;;;;5.68;2.80;;;;;;;28.08;15.53;100863.19;5602969;31;32758;-69
2022/04/12 11:32:43;;;;;;;4.93;2.75;;;;;;;28.81;15.52;100852.81;5589547;31;32221;-68
2022/04/12 11:35:50;;;;;;;4.72;2.50;;;;;;;29.40;15.03;100861.09;5590062;31;33506;-68
2022/04/12 11:38:56;;;;;;;3.55;2.30;;;;;;;29.68;15.40;100862.31;5584881;31;33025;-69
2022/04/12 11:42:05;;;;;;;3.95;2.78;;;;;;;30.20;14.74;100859.81;5589919;31;32494;-69
2022/04/12 11:45:08;;;;;;;;;;;;;;;28.50;17.36;100847.41;5577164;31;32296;-69
2022/04/12 11:48:11;;;;;;;3.42;2.60;;;;;;;25.71;17.39;100851.69;5590736;31;34757;-69
2022/04/12 11:51:17;;;;;;;5.12;2.62;;;;;;;27.13;16.11;100851.75;5576393;31;32315;-69
2022/04/12 11:54:34;;;;;;;5.40;3.35;;;;;;;26.02;17.51;100850.09;5590620;31;33944;-68
2022/04/12 11:57:37;;;;;;;5.05;3.33;;;;;;;26.25;16.77;100849.78;5589593;31;32385;-69
2022/04/12 12:00:45;;;;;;;4.35;2.92;;;;;;;24.08;18.53;100850.44;5589444;31;32105;-68
2022/04/12 12:03:48;;;;;;;4.95;2.75;;;;;;;26.02;17.68;100855.53;5589416;31;33467;-68
2022/04/12 12:07:08;;;;;;;3.95;2.80;;;;;;;26.30;17.04;100842.50;5576674;31;33599;-68
2022/04/12 12:10:18;;;;;;;4.55;2.97;;;;;;;27.58;15.87;100842.12;5590535;31;34454;-69
2022/04/12 12:13:24;;;;;;;4.70;3.00;;;;;;;28.38;16.20;100844.13;5576170;31;32336;-67
2022/04/12 12:16:27;;;;;;;4.43;2.83;;;;;;;28.05;15.51;100840.03;5589824;31;34319;-68
2022/04/12 12:19:33;;;;;;;3.97;2.78;;;;;;;30.39;14.06;100835.28;5589546;31;34069;-68
2022/04/12 12:22:38;;;;;;;5.72;2.55;;;;;;;28.97;15.52;100829.00;5590522;31;33867;-68
2022/04/12 12:25:46;;;;;;;3.85;2.70;;;;;;;30.37;14.91;100821.03;5590150;31;33933;-68
2022/04/12 12:28:56;;;;;;;3.90;2.62;;;;;;;29.57;14.95;100833.41;5589345;31;35158;-68
2022/04/12 12:31:59;;;;;;;7.28;2.92;;;;;;;28.51;15.74;100815.47;5589734;31;34489;-69
2022/04/12 12:35:04;;;;;;;4.20;2.53;;;;;;;28.45;15.50;100825.56;5588798;31;32372;-68
2022/04/12 12:38:12;;;;;;;5.65;3.00;;;;;;;26.89;16.78;100814.31;5589344;31;32483;-68
2022/04/12 12:41:32;;;;;;;5.10;3.25;;;;;;;29.56;14.13;100812.63;5588810;31;32682;-67
2022/04/12 12:44:37;;;;;;;4.35;3.15;;;;;;;30.84;13.32;100817.56;5588744;31;33769;-68
2022/04/12 12:47:41;;;;;;;5.57;3.25;;;;;;;31.45;12.63;100808.59;5588982;31;32292;-68
2022/04/12 12:50:45;;;;;;;7.35;3.20;;;;;;;30.55;13.08;100806.66;5588907;31;34637;-68
2022/04/12 12:53:59;;;;;;;3.70;2.70;;;;;;;29.43;13.86;100802.34;5589248;31;32438;-67
2022/04/12 12:57:03;;;;;;;4.55;2.67;;;;;;;30.32;14.18;100798.38;5589319;31;32298;-69
2022/04/12 13:00:07;;;;;;;4.55;2.75;;;;;;;29.20;15.50;100796.41;5588517;31;32593;-69
2022/04/12 13:03:15;;;;;;;5.03;3.05;;;;;;;29.41;14.87;100791.69;5589214;31;32611;-68
2022/04/12 13:06:20;;;;;;;4.28;2.92;;;;;;;27.75;16.90;100795.53;5589579;31;33878;-68
2022/04/12 13:09:25;;;;;;;4.05;2.95;;;;;;;29.18;14.74;100797.78;5588848;31;32176;-68
2022/04/12 13:12:27;;;;;;;4.35;3.08;;;;;;;27.78;15.96;100784.94;5588947;31;32228;-68
2022/04/12 13:15:30;;;;;;;4.45;2.97;;;;;;;27.06;16.87;100793.19;5588678;31;34666;-68
2022/04/12 13:18:34;;;;;;;4.32;2.95;;;;;;;27.01;17.00;100783.09;5588697;31;32331;-67
2022/04/12 13:21:36;;;;;;;6.75;3.80;;;;;;;28.43;15.36;100781.34;5588223;31;33857;-67
2022/04/12 13:24:39;;;;;;;4.55;3.15;;;;;;;28.35;15.73;100776.47;5589633;31;33797;-68
2022/04/12 13:27:43;;;;;;;5.22;3.30;;;;;;;31.59;13.61;100773.84;5588235;31;33246;-68
2022/04/12 13:30:49;;;;;;;6.15;3.40;;;;;;;29.82;13.91;100762.13;5589311;31;33802;-67
2022/04/12 13:33:52;;;;;;;5.40;3.55;;;;;;;29.76;14.42;100772.31;5575611;31;32320;-67
2022/04/12 13:36:55;;;;;;;5.57;3.60;;;;;;;30.57;13.42;100773.50;5588736;31;32997;-67
2022/04/12 13:39:57;;;;;;;6.62;3.35;;;;;;;27.73;15.32;100765.84;5588149;31;33269;-68
2022/04/12 13:43:03;;;;;;;4.32;3.17;;;;;;;28.80;15.48;100759.19;5588320;31;32327;-67
2022/04/12 13:46:08;;;;;;;4.80;3.27;;;;;;;31.20;12.70;100756.84;5588804;31;35138;-68
2022/04/12 13:49:12;;;;;;;7.05;3.70;;;;;;;31.30;13.29;100754.78;5588865;31;33814;-68
2022/04/12 13:52:15;;;;;;;5.68;3.53;;;;;;;30.45;13.35;100751.97;5588816;31;33921;-67
2022/04/12 13:55:17;;;;;;;4.60;3.25;;;;;;;26.58;16.40;100756.16;5588085;31;33052;-67
2022/04/12 13:58:20;;;;;;;5.43;3.65;;;;;;;28.41;14.73;100755.44;5587739;31;32640;-67
2022/04/12 14:01:23;;;;;;;5.78;3.80;;;;;;;24.82;18.67;100748.81;5586510;31;32306;-68
2022/04/12 14:04:26;;;;;;;5.43;3.67;;;;;;;24.41;18.79;100747.44;5587700;31;32253;-67
2022/04/12 14:07:29;;;;;;;5.62;3.60;;;;;;;27.51;15.75;100748.91;5587624;31;32519;-67
2022/04/12 14:10:32;;;;;;;6.80;3.70;;;;;;;27.31;16.87;100752.37;5588340;31;33922;-67
2022/04/12 14:13:41;;;;;;;5.68;3.58;;;;;;;29.50;15.33;100751.69;5587330;31;33902;-67
2022/04/12 14:16:45;;;;;;;5.68;3.40;;;;;;;29.54;15.15;100739.09;5587167;31;33928;-67
2022/04/12 14:19:48;;;;;;;4.65;3.30;;;;;;;27.38;16.40;100739.31;5586279;31;32981;-67